createdAt,value
2022-10-25T00:02:45.508Z,28.75
2022-10-25T00:05:50.889Z,28.00
2022-10-25T00:08:54.616Z,29.00
2022-10-25T00:11:58.727Z,32.50
2022-10-25T00:15:02.610Z,28.00
2022-10-25T00:18:07.499Z,30.75
2022-10-25T00:21:13.312Z,29.00
2022-10-25T00:24:17.395Z,30.75
2022-10-25T00:27:20.896Z,26.75
2022-10-25T00:30:25.150Z,33.25
2022-10-25T00:33:31.270Z,33.75
2022-10-25T00:36:36.962Z,32.25
2022-10-25T00:39:40.616Z,32.00
2022-10-25T00:42:46.319Z,30.50
2022-10-25T00:45:50.461Z,33.00
2022-10-25T00:49:00.660Z,30.00
2022-10-25T00:52:09.380Z,30.00
2022-10-25T00:55:18.173Z,32.75
2022-10-25T00:58:25.651Z,32.75
2022-10-25T01:01:30.251Z,32.00
2022-10-25T01:04:35.146Z,33.75
2022-10-25T01:07:40.908Z,32.00
2022-10-25T01:10:44.913Z,31.25
2022-10-25T01:13:50.031Z,30.75
2022-10-25T01:17:04.352Z,27.00
2022-10-25T01:20:35.052Z,33.75
2022-10-25T01:24:01.587Z,32.50
2022-10-25T01:27:31.073Z,31.50
2022-10-25T01:31:00.963Z,32.75
2022-10-25T01:34:10.085Z,31.25
2022-10-25T01:37:24.932Z,32.00
2022-10-25T01:40:54.315Z,32.00
2022-10-25T01:44:13.092Z,31.00
2022-10-25T01:47:22.683Z,28.75
2022-10-25T01:50:29.422Z,32.75
2022-10-25T01:53:33.442Z,32.25
2022-10-25T01:56:48.809Z,33.00
2022-10-25T02:00:12.207Z,30.25
2022-10-25T02:03:28.091Z,33.00
2022-10-25T02:06:41.438Z,29.75
2022-10-25T02:09:58.403Z,31.50
2022-10-25T02:13:10.994Z,32.00
2022-10-25T02:16:20.855Z,23.25
2022-10-25T02:19:33.153Z,31.25
2022-10-25T02:22:41.393Z,29.75
2022-10-25T02:25:47.803Z,28.00
2022-10-25T02:28:52.540Z,28.25
2022-10-25T02:31:56.480Z,23.25
2022-10-25T02:35:01.598Z,28.00
2022-10-25T02:38:05.844Z,9.25
2022-10-25T02:41:09.925Z,24.25
2022-10-25T02:44:13.843Z,28.00
2022-10-25T02:47:17.901Z,27.75
2022-10-25T02:50:23.890Z,29.25
2022-10-25T02:53:27.407Z,28.50
2022-10-25T02:56:31.581Z,27.00
2022-10-25T02:59:37.805Z,16.75
2022-10-25T03:02:42.228Z,23.75
2022-10-25T03:05:47.579Z,27.00
2022-10-25T03:08:51.499Z,26.50
2022-10-25T03:11:55.053Z,27.00
2022-10-25T03:14:58.874Z,24.50
2022-10-25T03:18:02.437Z,24.25
2022-10-25T03:21:09.847Z,25.00
2022-10-25T03:24:16.499Z,25.75
2022-10-25T03:27:20.514Z,27.25
2022-10-25T03:30:24.015Z,27.25
2022-10-25T03:33:28.125Z,27.00
2022-10-25T03:36:33.263Z,26.25
2022-10-25T03:39:37.432Z,24.75
2022-10-25T03:42:41.045Z,26.25
2022-10-25T03:45:45.347Z,24.75
2022-10-25T03:48:49.270Z,24.25
2022-10-25T03:51:57.835Z,25.25
2022-10-25T03:55:06.353Z,20.25
2022-10-25T03:58:10.369Z,25.00
2022-10-25T04:01:14.194Z,25.00
2022-10-25T04:04:18.110Z,22.50
2022-10-25T04:07:23.334Z,24.50
2022-10-25T04:10:28.987Z,24.25
2022-10-25T04:13:32.592Z,23.75
2022-10-25T04:16:36.679Z,24.25
2022-10-25T04:19:40.302Z,21.75
2022-10-25T04:22:45.625Z,22.25
2022-10-25T04:25:49.190Z,20.75
2022-10-25T04:28:56.710Z,22.25
2022-10-25T04:32:03.283Z,21.25
2022-10-25T04:35:11.190Z,23.50
2022-10-25T04:38:16.133Z,18.00
2022-10-25T04:41:23.104Z,21.75
2022-10-25T04:44:26.587Z,15.50
2022-10-25T04:47:33.043Z,19.50
2022-10-25T04:50:38.811Z,21.00
2022-10-25T04:53:44.103Z,20.00
2022-10-25T04:56:48.035Z,21.25
2022-10-25T04:59:52.687Z,19.25
2022-10-25T05:02:56.590Z,19.25
2022-10-25T05:06:07.661Z,20.75
2022-10-25T05:09:12.990Z,17.25
2022-10-25T05:12:16.884Z,19.75
2022-10-25T05:15:20.686Z,25.00
2022-10-25T05:18:25.202Z,34.75
2022-10-25T05:21:31.466Z,21.75
2022-10-25T05:24:39.671Z,21.00
2022-10-25T05:27:43.224Z,26.25
2022-10-25T05:30:47.160Z,23.00
2022-10-25T05:33:51.820Z,18.00
2022-10-25T05:36:57.431Z,28.00
2022-10-25T05:40:02.833Z,38.25
2022-10-25T05:43:08.875Z,20.50
2022-10-25T05:46:56.340Z,21.25
2022-10-25T05:50:00.631Z,21.50
2022-10-25T05:53:04.574Z,21.25
2022-10-25T05:56:11.883Z,21.25
2022-10-25T05:59:16.377Z,23.00
2022-10-25T06:03:02.252Z,23.25
2022-10-25T06:06:08.410Z,22.00
2022-10-25T06:09:13.873Z,2.00
2022-10-25T06:12:18.935Z,15.50
2022-10-25T06:15:23.388Z,26.50
2022-10-25T06:18:27.030Z,27.75
2022-10-25T06:21:31.345Z,26.75
2022-10-25T06:24:35.236Z,24.00
2022-10-25T06:27:40.778Z,27.75
2022-10-25T06:30:44.351Z,30.00
2022-10-25T06:33:48.503Z,26.50
2022-10-25T06:36:51.939Z,29.50
2022-10-25T06:39:55.749Z,29.00
2022-10-25T06:43:00.741Z,29.75
2022-10-25T06:46:06.912Z,29.75
2022-10-25T06:49:12.694Z,26.00
2022-10-25T06:52:16.477Z,20.00
2022-10-25T06:55:20.553Z,20.00
2022-10-25T06:58:27.072Z,25.50
2022-10-25T07:01:30.807Z,33.25
2022-10-25T07:04:34.778Z,33.75
2022-10-25T07:07:38.871Z,32.00
2022-10-25T07:10:42.954Z,37.50
2022-10-25T07:13:49.096Z,45.50
2022-10-25T07:16:52.907Z,51.25
2022-10-25T07:19:58.121Z,40.25
2022-10-25T07:23:03.342Z,41.25
2022-10-25T07:26:14.049Z,33.75
2022-10-25T07:29:19.723Z,36.00
2022-10-25T07:32:27.724Z,38.00
2022-10-25T07:35:42.005Z,39.00
2022-10-25T07:38:57.364Z,35.50
2022-10-25T07:42:01.206Z,39.50
2022-10-25T07:45:08.365Z,48.75
2022-10-25T07:48:14.435Z,42.25
2022-10-25T07:51:19.038Z,39.50
2022-10-25T07:54:22.900Z,38.25
2022-10-25T07:57:26.323Z,40.00
2022-10-25T08:00:31.960Z,44.25
2022-10-25T08:03:35.928Z,44.25
2022-10-25T08:06:39.690Z,42.00
2022-10-25T08:09:43.463Z,35.25
2022-10-25T08:12:49.095Z,31.25
2022-10-25T08:15:55.285Z,28.00
2022-10-25T08:19:01.779Z,26.25
2022-10-25T08:22:05.811Z,29.00
2022-10-25T08:25:10.193Z,31.00
2022-10-25T08:28:13.728Z,29.75
2022-10-25T08:31:19.279Z,30.00
2022-10-25T08:34:23.232Z,28.75
2022-10-25T08:37:27.943Z,26.50
2022-10-25T08:40:43.691Z,25.50
2022-10-25T08:47:18.223Z,26.75
2022-10-25T08:50:28.484Z,24.25
2022-10-25T08:53:38.456Z,22.00
2022-10-25T08:56:56.949Z,18.50
2022-10-25T09:00:14.255Z,16.50
2022-10-25T09:03:25.646Z,14.00
2022-10-25T09:06:37.762Z,13.00
2022-10-25T09:09:49.981Z,13.25
2022-10-25T09:13:00.341Z,13.25
2022-10-25T09:16:12.101Z,12.00
2022-10-25T09:19:20.580Z,12.00
2022-10-25T09:22:28.674Z,12.00
2022-10-25T09:25:41.181Z,12.67
2022-10-25T09:28:56.978Z,12.00
2022-10-25T09:32:03.000Z,15.00
2022-10-25T09:35:16.579Z,11.33
2022-10-25T09:38:28.940Z,18.67
2022-10-25T09:41:39.940Z,18.50
2022-10-25T09:44:48.446Z,16.00
2022-10-25T09:48:01.014Z,12.00
2022-10-25T09:51:15.292Z,17.75
2022-10-25T09:54:28.309Z,13.00
2022-10-25T09:57:31.846Z,19.33
2022-10-25T10:00:40.177Z,15.00
2022-10-25T10:03:46.741Z,19.00
2022-10-25T10:07:00.343Z,12.67
2022-10-25T10:10:07.073Z,17.33
2022-10-25T10:13:19.542Z,10.67
2022-10-25T10:16:26.935Z,14.67
2022-10-25T10:19:31.823Z,15.67
2022-10-25T10:22:38.701Z,15.33
2022-10-25T10:25:47.148Z,15.33
2022-10-25T10:28:53.052Z,11.33
2022-10-25T10:32:01.701Z,17.33
2022-10-25T10:35:07.917Z,11.00
2022-10-25T10:38:24.403Z,12.00
2022-10-25T10:41:30.291Z,13.67
2022-10-25T10:44:34.946Z,16.67
2022-10-25T10:47:43.033Z,22.50
2022-10-25T10:50:50.568Z,25.25
2022-10-25T10:53:56.167Z,15.00
2022-10-25T10:57:02.378Z,11.33
2022-10-25T11:00:07.113Z,15.67
2022-10-25T11:03:36.542Z,11.33
2022-10-25T11:06:40.005Z,9.00
2022-10-25T11:09:45.507Z,15.67
2022-10-25T11:13:09.959Z,14.00
2022-10-25T11:16:33.586Z,11.67
2022-10-25T11:19:48.579Z,12.00
2022-10-25T11:23:05.494Z,12.00
2022-10-25T11:26:20.316Z,11.33
2022-10-25T11:29:42.919Z,13.67
2022-10-25T11:33:17.970Z,9.33
2022-10-25T11:36:35.621Z,8.00
2022-10-25T11:39:48.710Z,9.33
2022-10-25T11:43:08.938Z,10.00
2022-10-25T11:46:25.452Z,8.33
2022-10-25T11:49:42.109Z,9.67
2022-10-25T11:53:12.108Z,9.00
2022-10-25T11:56:23.594Z,9.33
2022-10-25T11:59:37.805Z,8.00
2022-10-25T12:02:57.999Z,7.67
2022-10-25T12:06:17.706Z,9.67
2022-10-25T12:09:32.773Z,9.00
2022-10-25T12:12:44.216Z,8.00
2022-10-25T12:15:55.005Z,8.00
2022-10-25T12:19:09.019Z,7.33
2022-10-25T12:22:20.120Z,7.00
2022-10-25T12:25:27.692Z,3.33
2022-10-25T12:28:43.538Z,8.67
2022-10-25T12:31:56.857Z,10.00
2022-10-25T12:35:05.205Z,8.33
2022-10-25T12:38:16.886Z,8.00
2022-10-25T12:41:24.386Z,8.67
2022-10-25T12:44:47.759Z,8.00
2022-10-25T12:48:08.533Z,10.00
2022-10-25T12:51:26.545Z,11.67
2022-10-25T12:54:56.534Z,9.00
2022-10-25T12:58:15.067Z,12.00
2022-10-25T13:01:49.736Z,12.33
2022-10-25T13:05:12.839Z,11.33
2022-10-25T13:08:20.789Z,9.67
2022-10-25T13:11:34.407Z,8.00
2022-10-25T13:14:44.577Z,9.67
2022-10-25T13:18:04.247Z,9.33
2022-10-25T13:21:12.383Z,11.33
2022-10-25T13:24:39.584Z,22.25
2022-10-25T13:28:33.959Z,16.00
2022-10-25T13:31:58.806Z,14.33
2022-10-25T13:35:04.348Z,20.67
2022-10-25T13:38:09.840Z,11.33
2022-10-25T13:41:16.934Z,13.33
2022-10-25T13:44:26.051Z,13.00
2022-10-25T13:47:38.414Z,14.33
2022-10-25T13:50:48.731Z,14.67
2022-10-25T13:53:55.641Z,17.67
2022-10-25T13:56:59.355Z,13.00
2022-10-25T14:00:13.077Z,11.00
2022-10-25T14:03:26.291Z,13.33
2022-10-25T14:06:36.191Z,11.00
2022-10-25T14:09:41.263Z,10.00
2022-10-25T14:12:49.761Z,7.33
2022-10-25T14:16:01.883Z,8.00
2022-10-25T14:19:15.054Z,16.33
2022-10-25T14:22:25.962Z,18.00
2022-10-25T14:25:36.718Z,13.67
2022-10-25T14:28:40.545Z,14.67
2022-10-25T14:31:46.593Z,9.33
2022-10-25T14:34:51.871Z,9.67
2022-10-25T14:37:55.778Z,7.67
2022-10-25T14:41:01.389Z,6.00
2022-10-25T14:44:24.070Z,9.00
2022-10-25T14:47:30.676Z,9.00
2022-10-25T14:50:35.887Z,6.00
2022-10-25T14:53:50.895Z,7.33
2022-10-25T14:56:59.098Z,7.00
2022-10-25T15:00:05.258Z,12.00
2022-10-25T15:03:14.418Z,11.33
2022-10-25T15:06:22.305Z,18.67
2022-10-25T15:09:42.226Z,9.00
2022-10-25T15:12:52.393Z,10.00
2022-10-25T15:15:58.046Z,6.33
2022-10-25T15:19:18.387Z,11.67
2022-10-25T15:22:29.790Z,11.33
2022-10-25T15:25:41.413Z,16.67
2022-10-25T15:28:49.758Z,12.67
2022-10-25T15:31:53.263Z,12.67
2022-10-25T15:35:02.007Z,0.00
2022-10-25T15:38:05.595Z,11.33
2022-10-25T15:41:10.190Z,11.33
2022-10-25T15:44:13.831Z,18.00
2022-10-25T15:47:27.560Z,13.00
2022-10-25T15:50:33.041Z,34.75
2022-10-25T15:53:37.004Z,28.00
2022-10-25T15:56:40.586Z,23.25
2022-10-25T15:59:44.640Z,25.50
2022-10-25T16:02:48.518Z,27.75
2022-10-25T16:05:54.255Z,21.50
2022-10-25T16:08:57.846Z,23.50
2022-10-25T16:12:02.009Z,28.50
2022-10-25T16:15:11.641Z,34.50
2022-10-25T16:18:15.396Z,30.75
2022-10-25T16:21:21.379Z,36.50
2022-10-25T16:24:25.506Z,37.75
2022-10-25T16:27:29.001Z,57.50
2022-10-25T16:30:36.478Z,83.33
2022-10-25T16:33:41.882Z,50.25
2022-10-25T16:36:47.514Z,28.75
2022-10-25T16:39:51.067Z,19.75
2022-10-25T16:42:55.591Z,28.50
2022-10-25T16:46:01.587Z,43.75
2022-10-25T16:49:06.007Z,37.00
2022-10-25T16:52:11.061Z,44.00
2022-10-25T16:55:15.200Z,26.00
2022-10-25T16:58:18.763Z,25.25
2022-10-25T17:01:27.585Z,55.50
2022-10-25T17:04:33.557Z,29.00
2022-10-25T17:07:43.419Z,33.00
2022-10-25T17:10:47.773Z,27.00
2022-10-25T17:13:54.389Z,37.00
2022-10-25T17:17:02.334Z,38.00
2022-10-25T17:20:08.753Z,38.25
2022-10-25T17:23:14.345Z,37.00
2022-10-25T17:26:18.214Z,31.00
2022-10-25T17:29:21.708Z,24.00
2022-10-25T17:32:27.741Z,32.50
2022-10-25T17:35:31.482Z,26.25
2022-10-25T17:38:36.872Z,26.50
2022-10-25T17:41:40.438Z,26.25
2022-10-25T17:44:45.400Z,25.75
2022-10-25T17:47:49.257Z,24.00
2022-10-25T17:50:55.897Z,26.75
2022-10-25T17:54:01.278Z,30.00
2022-10-25T17:57:05.942Z,35.00
2022-10-25T18:00:10.901Z,31.25
2022-10-25T18:03:19.051Z,29.50
2022-10-25T18:06:24.749Z,32.00
2022-10-25T18:09:30.626Z,37.00
2022-10-25T18:12:34.268Z,36.50
2022-10-25T18:15:39.511Z,31.75
2022-10-25T18:18:44.376Z,37.25
2022-10-25T18:21:48.246Z,32.00
2022-10-25T18:24:53.318Z,30.50
2022-10-25T18:27:57.311Z,31.00
2022-10-25T18:31:01.368Z,27.00
2022-10-25T18:34:05.469Z,26.25
2022-10-25T18:37:09.753Z,30.75
2022-10-25T18:40:15.591Z,31.25
2022-10-25T18:43:19.734Z,25.00
2022-10-25T18:46:25.709Z,26.50
2022-10-25T18:49:29.403Z,27.25
2022-10-25T18:52:33.503Z,28.50
2022-10-25T18:55:38.700Z,29.75
2022-10-25T18:58:43.726Z,28.00
2022-10-25T19:01:47.448Z,28.00
2022-10-25T19:04:51.452Z,25.50
2022-10-25T19:07:55.204Z,40.25
2022-10-25T19:11:04.084Z,35.25
2022-10-25T19:14:08.380Z,34.50
2022-10-25T19:17:13.439Z,32.00
2022-10-25T19:20:17.411Z,36.50
2022-10-25T19:23:21.354Z,39.25
2022-10-25T19:26:26.406Z,30.25
2022-10-25T19:29:30.600Z,32.50
2022-10-25T19:32:34.553Z,32.25
2022-10-25T19:35:38.261Z,29.50
2022-10-25T19:38:42.108Z,29.75
2022-10-25T19:41:47.540Z,36.00
2022-10-25T19:44:51.951Z,39.00
2022-10-25T19:47:57.056Z,26.75
2022-10-25T19:51:05.858Z,32.25
2022-10-25T19:54:10.033Z,31.25
2022-10-25T19:57:16.580Z,32.50
2022-10-25T20:00:20.674Z,28.00
2022-10-25T20:03:25.477Z,28.25
2022-10-25T20:06:31.968Z,27.00
2022-10-25T20:09:35.569Z,27.25
2022-10-25T20:12:40.952Z,28.00
2022-10-25T20:15:50.342Z,28.50
2022-10-25T20:18:55.055Z,23.25
2022-10-25T20:21:59.606Z,32.00
2022-10-25T20:25:03.612Z,32.75
2022-10-25T20:28:09.703Z,28.00
2022-10-25T20:31:14.595Z,33.00
2022-10-25T20:34:18.507Z,26.75
2022-10-25T20:37:22.829Z,29.75
2022-10-25T20:40:29.012Z,31.00
2022-10-25T20:43:35.023Z,25.50
2022-10-25T20:46:38.756Z,27.50
2022-10-25T20:49:42.848Z,32.00
2022-10-25T20:52:58.535Z,32.50
2022-10-25T20:56:10.794Z,28.00
2022-10-25T20:59:15.847Z,32.50
2022-10-25T21:02:20.235Z,31.75
2022-10-25T21:05:23.965Z,23.75
2022-10-25T21:08:28.727Z,26.00
2022-10-25T21:11:32.887Z,27.00
2022-10-25T21:17:50.307Z,27.75
2022-10-25T21:20:55.479Z,25.00
2022-10-25T21:23:59.743Z,23.25
2022-10-25T21:27:03.674Z,25.25
2022-10-25T21:30:09.887Z,25.25
2022-10-25T21:33:16.048Z,25.25
2022-10-25T21:36:20.971Z,0.00
2022-10-25T21:39:25.333Z,24.50
2022-10-25T21:42:32.287Z,19.25
2022-10-25T21:45:42.321Z,25.50
2022-10-25T21:48:47.427Z,24.00
2022-10-25T21:51:51.500Z,23.25
2022-10-25T21:54:55.893Z,26.00
2022-10-25T21:58:00.118Z,23.75
2022-10-25T22:01:08.543Z,24.00
2022-10-25T22:04:13.037Z,20.00
2022-10-25T22:07:17.152Z,24.00
2022-10-25T22:10:21.441Z,23.75
2022-10-25T22:13:25.096Z,22.00
2022-10-25T22:16:31.932Z,21.75
2022-10-25T22:19:35.570Z,19.50
2022-10-25T22:22:39.383Z,0.00
2022-10-25T22:25:42.866Z,24.00
2022-10-25T22:28:47.284Z,24.75
2022-10-25T22:32:11.142Z,24.50
2022-10-25T22:35:14.955Z,24.00
2022-10-25T22:38:18.358Z,22.00
2022-10-25T22:41:24.959Z,14.00
2022-10-25T22:44:29.066Z,18.00
2022-10-25T22:47:34.756Z,20.75
2022-10-25T22:50:38.257Z,19.00
2022-10-25T22:53:42.905Z,21.25
2022-10-25T23:00:19.831Z,22.25
2022-10-25T23:03:25.404Z,19.00
2022-10-25T23:06:31.375Z,15.25
2022-10-25T23:09:35.257Z,21.50
2022-10-25T23:12:38.802Z,19.00
2022-10-25T23:15:45.272Z,18.50
2022-10-25T23:18:51.094Z,17.00
2022-10-25T23:21:54.936Z,16.50
2022-10-25T23:24:59.310Z,19.25
2022-10-25T23:28:03.373Z,21.75
2022-10-25T23:31:09.406Z,17.25
2022-10-25T23:34:14.941Z,19.75
2022-10-25T23:37:18.974Z,3.50
2022-10-25T23:40:23.211Z,14.50
2022-10-25T23:43:27.195Z,14.00
2022-10-25T23:46:33.353Z,15.75
2022-10-25T23:49:38.679Z,15.50
2022-10-25T23:52:42.817Z,17.00
2022-10-25T23:55:46.363Z,18.00
2022-10-25T23:58:54.593Z,15.50
